createdAt,value
2022-11-24T00:00:49.375Z,78.29
2022-11-24T00:01:51.177Z,78.29
2022-11-24T00:02:53.192Z,78.46
2022-11-24T00:04:00.242Z,78.03
2022-11-24T00:05:01.949Z,78.49
2022-11-24T00:06:11.865Z,78.53
2022-11-24T00:07:13.667Z,78.77
2022-11-24T00:08:15.461Z,79.06
2022-11-24T00:09:17.211Z,78.55
2022-11-24T00:10:19.081Z,78.87
2022-11-24T00:11:23.222Z,79.35
2022-11-24T00:12:24.932Z,78.78
2022-11-24T00:13:26.832Z,78.88
2022-11-24T00:14:28.629Z,78.75
2022-11-24T00:15:30.355Z,78.42
2022-11-24T00:16:34.578Z,78.38
2022-11-24T00:17:36.375Z,78.30
2022-11-24T00:18:39.748Z,77.86
2022-11-24T00:19:44.499Z,78.34
2022-11-24T00:20:53.102Z,77.83
2022-11-24T00:21:54.908Z,77.89
2022-11-24T00:22:56.683Z,77.67
2022-11-24T00:23:58.991Z,77.58
2022-11-24T00:25:00.730Z,77.98
2022-11-24T00:26:11.557Z,77.41
2022-11-24T00:27:13.469Z,76.90
2022-11-24T00:28:15.221Z,76.93
2022-11-24T00:29:17.002Z,77.83
2022-11-24T00:30:18.792Z,77.75
2022-11-24T00:31:24.850Z,78.01
2022-11-24T00:32:30.310Z,77.85
2022-11-24T00:33:32.386Z,78.23
2022-11-24T00:34:34.415Z,78.34
2022-11-24T00:35:36.369Z,78.19
2022-11-24T00:36:38.416Z,78.03
2022-11-24T00:37:40.254Z,78.24
2022-11-24T00:38:42.203Z,78.05
2022-11-24T00:39:43.920Z,78.08
2022-11-24T00:40:45.637Z,78.09
2022-11-24T00:41:47.389Z,78.82
2022-11-24T00:42:49.191Z,79.66
2022-11-24T00:43:51.738Z,79.42
2022-11-24T00:44:53.472Z,79.70
2022-11-24T00:45:55.383Z,79.11
2022-11-24T00:46:57.314Z,78.90
2022-11-24T00:47:59.169Z,78.57
2022-11-24T00:49:01.192Z,77.75
2022-11-24T00:50:03.059Z,77.47
2022-11-24T00:51:07.997Z,78.05
2022-11-24T00:52:09.755Z,77.93
2022-11-24T00:53:11.487Z,78.28
2022-11-24T00:54:13.222Z,78.35
2022-11-24T00:55:15.080Z,78.57
2022-11-24T00:56:16.921Z,78.54
2022-11-24T00:57:18.672Z,78.52
2022-11-24T00:58:20.956Z,78.65
2022-11-24T00:59:22.690Z,78.37
2022-11-24T01:00:30.811Z,78.37
2022-11-24T01:01:32.608Z,78.49
2022-11-24T01:02:34.429Z,78.63
2022-11-24T01:03:36.526Z,78.71
2022-11-24T01:04:38.245Z,78.55
2022-11-24T01:05:40.701Z,78.08
2022-11-24T01:06:42.467Z,77.73
2022-11-24T01:07:44.362Z,77.76
2022-11-24T01:08:46.787Z,77.56
2022-11-24T01:09:48.526Z,77.97
2022-11-24T01:10:50.253Z,77.24
2022-11-24T01:12:04.437Z,77.23
2022-11-24T01:13:07.155Z,76.11
2022-11-24T01:14:08.913Z,75.21
2022-11-24T01:15:10.791Z,75.57
2022-11-24T01:16:19.142Z,74.74
2022-11-24T01:17:20.969Z,75.26
2022-11-24T01:18:22.687Z,74.80
2022-11-24T01:19:24.442Z,74.53
2022-11-24T01:20:26.164Z,73.87
2022-11-24T01:21:27.998Z,74.10
2022-11-24T01:22:29.727Z,73.83
2022-11-24T01:23:32.626Z,73.70
2022-11-24T01:24:34.588Z,73.32
2022-11-24T01:25:40.173Z,73.16
2022-11-24T01:26:42.440Z,73.53
2022-11-24T01:27:44.216Z,73.85
2022-11-24T01:28:47.707Z,73.36
2022-11-24T01:29:49.741Z,72.96
2022-11-24T01:31:17.675Z,73.22
2022-11-24T01:32:19.513Z,73.36
2022-11-24T01:33:21.291Z,73.49
2022-11-24T01:34:23.147Z,73.33
2022-11-24T01:35:24.868Z,73.59
2022-11-24T01:36:26.621Z,73.24
2022-11-24T01:37:28.333Z,73.09
2022-11-24T01:38:30.192Z,73.50
2022-11-24T01:39:31.942Z,73.83
2022-11-24T01:40:33.660Z,73.66
2022-11-24T01:41:35.861Z,74.07
2022-11-24T01:42:51.689Z,73.45
2022-11-24T01:43:55.436Z,74.02
2022-11-24T01:45:40.946Z,74.00
2022-11-24T01:46:46.812Z,73.88
2022-11-24T01:47:48.539Z,74.65
2022-11-24T01:49:02.047Z,74.65
2022-11-24T01:50:06.203Z,74.67
2022-11-24T01:51:10.338Z,74.54
2022-11-24T01:52:18.878Z,74.66
2022-11-24T01:53:23.484Z,74.64
2022-11-24T01:54:36.184Z,74.84
2022-11-24T01:55:39.952Z,74.67
2022-11-24T01:56:45.963Z,74.52
2022-11-24T01:58:05.965Z,74.44
2022-11-24T01:59:11.479Z,74.65
2022-11-24T02:00:14.909Z,74.75
2022-11-24T02:01:16.675Z,74.54
2022-11-24T02:02:19.817Z,74.21
2022-11-24T02:03:26.432Z,74.02
2022-11-24T02:04:33.454Z,74.38
2022-11-24T02:05:47.394Z,74.60
2022-11-24T02:06:49.152Z,74.33
2022-11-24T02:07:54.321Z,74.02
2022-11-24T02:09:02.512Z,74.11
2022-11-24T02:10:08.927Z,73.77
2022-11-24T02:11:10.997Z,74.42
2022-11-24T02:12:13.079Z,74.65
2022-11-24T02:13:15.893Z,74.52
2022-11-24T02:14:19.710Z,75.19
2022-11-24T02:15:21.598Z,75.67
2022-11-24T02:16:23.783Z,76.21
2022-11-24T02:17:25.611Z,76.38
2022-11-24T02:18:27.337Z,76.41
2022-11-24T02:19:38.097Z,76.68
2022-11-24T02:20:39.977Z,77.16
2022-11-24T02:21:41.771Z,77.04
2022-11-24T02:23:10.529Z,77.32
2022-11-24T02:24:20.897Z,77.37
2022-11-24T02:26:03.874Z,77.96
2022-11-24T02:27:05.670Z,77.79
2022-11-24T02:28:12.445Z,78.48
2022-11-24T02:29:15.228Z,78.10
2022-11-24T02:30:17.204Z,78.07
2022-11-24T02:31:19.132Z,77.97
2022-11-24T02:32:21.931Z,77.92
2022-11-24T02:33:25.468Z,77.66
2022-11-24T02:34:27.205Z,78.17
2022-11-24T02:35:29.180Z,78.11
2022-11-24T02:36:31.071Z,78.00
2022-11-24T02:37:32.810Z,77.94
2022-11-24T02:38:35.904Z,77.68
2022-11-24T02:39:38.087Z,77.56
2022-11-24T02:40:43.252Z,77.41
2022-11-24T02:42:01.771Z,77.03
2022-11-24T02:43:13.318Z,76.94
2022-11-24T02:44:17.987Z,77.31
2022-11-24T02:45:20.834Z,76.74
2022-11-24T02:46:23.138Z,76.81
2022-11-24T02:47:24.901Z,77.26
2022-11-24T02:48:26.844Z,76.92
2022-11-24T02:49:28.557Z,77.14
2022-11-24T02:50:30.322Z,76.81
2022-11-24T02:51:34.548Z,76.18
2022-11-24T02:52:36.244Z,76.56
2022-11-24T02:53:37.969Z,76.77
2022-11-24T02:54:39.735Z,76.62
2022-11-24T02:55:41.460Z,76.65
2022-11-24T02:56:43.186Z,75.86
2022-11-24T02:57:44.907Z,76.14
2022-11-24T02:58:46.656Z,76.16
2022-11-24T02:59:48.366Z,75.83
2022-11-24T03:00:50.418Z,76.22
2022-11-24T03:01:52.227Z,76.19
2022-11-24T03:02:54.241Z,76.05
2022-11-24T03:03:56.007Z,75.66
2022-11-24T03:04:57.769Z,75.83
2022-11-24T03:05:59.500Z,75.58
2022-11-24T03:07:01.253Z,75.25
2022-11-24T03:08:03.547Z,74.98
2022-11-24T03:09:06.333Z,74.89
2022-11-24T03:10:08.354Z,74.29
2022-11-24T03:11:10.049Z,74.98
2022-11-24T03:12:11.762Z,75.07
2022-11-24T03:13:13.721Z,75.17
2022-11-24T03:14:15.595Z,74.98
2022-11-24T03:15:17.456Z,75.42
2022-11-24T03:16:19.299Z,75.21
2022-11-24T03:17:21.146Z,75.12
2022-11-24T03:18:22.904Z,75.23
2022-11-24T03:19:24.647Z,75.40
2022-11-24T03:20:26.624Z,75.72
2022-11-24T03:21:28.822Z,75.40
2022-11-24T03:22:30.632Z,75.50
2022-11-24T03:23:32.420Z,75.40
2022-11-24T03:24:34.341Z,75.85
2022-11-24T03:25:36.326Z,75.65
2022-11-24T03:26:38.094Z,75.54
2022-11-24T03:27:39.856Z,75.81
2022-11-24T03:28:41.998Z,75.78
2022-11-24T03:29:43.720Z,75.71
2022-11-24T03:30:48.615Z,75.83
2022-11-24T03:31:50.470Z,75.64
2022-11-24T03:32:56.483Z,75.10
2022-11-24T03:33:58.209Z,75.29
2022-11-24T03:35:00.035Z,74.98
2022-11-24T03:36:02.032Z,75.43
2022-11-24T03:37:03.807Z,75.05
2022-11-24T03:38:05.541Z,75.03
2022-11-24T03:39:07.427Z,74.99
2022-11-24T03:40:09.746Z,75.06
2022-11-24T03:41:11.601Z,74.89
2022-11-24T03:42:13.326Z,75.02
2022-11-24T03:43:15.112Z,74.87
2022-11-24T03:44:17.087Z,75.41
2022-11-24T03:46:41.241Z,75.06
2022-11-24T03:47:43.039Z,75.43
2022-11-24T03:48:44.819Z,75.91
2022-11-24T03:49:46.596Z,75.99
2022-11-24T03:50:59.512Z,75.66
2022-11-24T03:52:06.555Z,75.57
2022-11-24T03:53:10.122Z,75.14
2022-11-24T03:54:12.006Z,75.16
2022-11-24T03:55:13.846Z,75.34
2022-11-24T03:56:16.568Z,75.28
2022-11-24T03:57:18.344Z,75.39
2022-11-24T03:58:20.501Z,75.68
2022-11-24T03:59:22.282Z,75.55
2022-11-24T04:00:24.010Z,75.45
2022-11-24T04:01:25.769Z,75.61
2022-11-24T04:02:27.538Z,75.39
2022-11-24T04:03:29.455Z,75.21
2022-11-24T04:04:31.272Z,75.11
2022-11-24T04:05:33.667Z,75.12
2022-11-24T04:06:35.420Z,75.32
2022-11-24T04:07:37.444Z,75.06
2022-11-24T04:08:39.213Z,75.23
2022-11-24T04:09:40.988Z,75.27
2022-11-24T04:10:43.071Z,75.58
2022-11-24T04:12:03.356Z,74.75
2022-11-24T04:13:10.894Z,74.65
2022-11-24T04:14:13.943Z,74.72
2022-11-24T04:15:18.517Z,75.25
2022-11-24T04:16:20.272Z,75.35
2022-11-24T04:17:22.020Z,75.23
2022-11-24T04:18:23.772Z,74.61
2022-11-24T04:19:25.490Z,74.51
2022-11-24T04:20:27.212Z,74.87
2022-11-24T04:21:28.966Z,74.73
2022-11-24T04:22:30.779Z,74.95
2022-11-24T04:23:32.548Z,75.06
2022-11-24T04:24:34.440Z,74.81
2022-11-24T04:25:37.154Z,75.39
2022-11-24T04:26:38.994Z,75.49
2022-11-24T04:27:40.727Z,75.42
2022-11-24T04:28:42.477Z,75.91
2022-11-24T04:29:44.342Z,75.45
2022-11-24T04:30:46.096Z,75.57
2022-11-24T04:31:47.923Z,75.46
2022-11-24T04:32:49.962Z,75.48
2022-11-24T04:33:51.678Z,76.10
2022-11-24T04:34:53.445Z,75.98
2022-11-24T04:35:55.218Z,75.27
2022-11-24T04:36:57.028Z,75.76
2022-11-24T04:38:02.715Z,75.70
2022-11-24T04:39:22.784Z,76.27
2022-11-24T04:40:26.267Z,76.30
2022-11-24T04:41:28.007Z,76.55
2022-11-24T04:42:29.818Z,76.73
2022-11-24T04:43:36.358Z,76.75
2022-11-24T04:44:40.908Z,76.88
2022-11-24T04:45:42.626Z,77.04
2022-11-24T04:46:44.579Z,77.62
2022-11-24T04:47:46.354Z,78.29
2022-11-24T04:48:48.138Z,78.60
2022-11-24T04:49:50.740Z,78.94
2022-11-24T04:50:52.950Z,78.47
2022-11-24T04:51:54.690Z,77.96
2022-11-24T04:52:56.512Z,77.40
2022-11-24T04:53:58.221Z,77.41
2022-11-24T04:54:59.936Z,76.90
2022-11-24T04:56:06.153Z,76.96
2022-11-24T04:57:07.944Z,76.90
2022-11-24T04:58:12.320Z,76.54
2022-11-24T04:59:15.194Z,76.92
2022-11-24T05:00:17.454Z,77.23
2022-11-24T05:01:19.256Z,77.34
2022-11-24T05:02:21.169Z,77.58
2022-11-24T05:03:22.933Z,77.01
2022-11-24T05:04:24.791Z,77.88
2022-11-24T05:05:26.545Z,77.98
2022-11-24T05:06:28.323Z,77.76
2022-11-24T05:07:30.140Z,78.00
2022-11-24T05:08:32.159Z,77.88
2022-11-24T05:09:58.131Z,78.05
2022-11-24T05:10:55.583Z,77.37
2022-11-24T05:11:57.295Z,77.53
2022-11-24T05:12:59.770Z,77.17
2022-11-24T05:14:02.052Z,77.08
2022-11-24T05:15:05.595Z,76.94
2022-11-24T05:16:07.605Z,77.27
2022-11-24T05:17:09.286Z,77.41
2022-11-24T05:18:13.775Z,77.38
2022-11-24T05:19:15.759Z,76.99
2022-11-24T05:20:18.378Z,76.55
2022-11-24T05:21:20.018Z,76.49
2022-11-24T05:22:21.665Z,75.68
2022-11-24T05:23:23.356Z,76.02
2022-11-24T05:24:24.990Z,75.15
2022-11-24T05:25:26.673Z,74.96
2022-11-24T05:26:28.425Z,75.22
2022-11-24T05:27:30.144Z,75.25
2022-11-24T05:28:32.091Z,74.60
2022-11-24T05:29:33.758Z,74.86
2022-11-24T05:30:38.247Z,74.88
2022-11-24T05:31:39.928Z,74.09
2022-11-24T05:32:41.729Z,74.03
2022-11-24T05:33:43.453Z,73.57
2022-11-24T05:34:45.155Z,73.43
2022-11-24T05:35:48.305Z,73.55
2022-11-24T05:36:52.993Z,74.21
2022-11-24T05:37:54.722Z,74.12
2022-11-24T05:38:56.412Z,74.46
2022-11-24T05:39:58.071Z,74.60
2022-11-24T05:41:04.795Z,74.42
2022-11-24T05:42:26.701Z,74.72
2022-11-24T05:43:28.597Z,74.78
2022-11-24T05:44:30.237Z,75.28
2022-11-24T05:45:31.875Z,75.31
2022-11-24T05:46:33.703Z,75.59
2022-11-24T05:47:36.146Z,76.06
2022-11-24T05:48:37.840Z,75.76
2022-11-24T05:49:39.691Z,76.14
2022-11-24T05:50:41.747Z,75.87
2022-11-24T05:51:43.412Z,76.23
2022-11-24T05:52:45.330Z,76.68
2022-11-24T05:53:46.955Z,77.63
2022-11-24T05:54:48.978Z,77.43
2022-11-24T05:55:50.623Z,77.96
2022-11-24T05:56:52.262Z,78.25
2022-11-24T05:58:07.851Z,78.17
2022-11-24T05:59:10.123Z,78.91
2022-11-24T06:00:13.134Z,79.74
2022-11-24T06:01:14.805Z,80.04
2022-11-24T06:02:16.617Z,80.35
2022-11-24T06:03:18.324Z,81.01
2022-11-24T06:04:20.029Z,80.53
2022-11-24T06:05:21.926Z,80.56
2022-11-24T06:06:23.575Z,80.64
2022-11-24T06:07:25.329Z,80.70
2022-11-24T06:08:31.083Z,80.96
2022-11-24T06:09:35.491Z,81.07
2022-11-24T06:10:37.197Z,81.10
2022-11-24T06:11:38.911Z,81.24
2022-11-24T06:12:40.553Z,80.69
2022-11-24T06:13:42.314Z,80.83
2022-11-24T06:14:44.319Z,81.19
2022-11-24T06:15:46.565Z,81.68
2022-11-24T06:16:48.254Z,81.66
2022-11-24T06:17:54.943Z,82.09
2022-11-24T06:18:56.707Z,82.54
2022-11-24T06:19:58.392Z,82.36
2022-11-24T06:21:10.819Z,81.57
2022-11-24T06:22:12.769Z,80.95
2022-11-24T06:23:14.416Z,80.46
2022-11-24T06:24:16.080Z,79.98
2022-11-24T06:25:18.147Z,79.74
2022-11-24T06:26:19.942Z,79.94
2022-11-24T06:27:21.631Z,80.17
2022-11-24T06:28:23.327Z,80.02
2022-11-24T06:29:25.055Z,80.24
2022-11-24T06:30:26.723Z,80.14
2022-11-24T06:31:28.464Z,80.08
2022-11-24T06:32:30.164Z,79.60
2022-11-24T06:33:36.573Z,79.90
2022-11-24T06:34:38.212Z,79.99
2022-11-24T06:35:39.906Z,80.15
2022-11-24T06:36:41.757Z,80.93
2022-11-24T06:37:43.433Z,80.79
2022-11-24T06:38:45.207Z,80.47
2022-11-24T06:39:46.953Z,80.83
2022-11-24T06:40:48.607Z,80.57
2022-11-24T06:41:50.823Z,80.41
2022-11-24T06:42:52.781Z,80.83
2022-11-24T06:43:54.474Z,80.93
2022-11-24T06:44:56.122Z,82.25
2022-11-24T06:45:58.324Z,81.37
2022-11-24T06:47:00.153Z,80.66
2022-11-24T06:48:01.829Z,82.19
2022-11-24T06:49:03.600Z,82.54
2022-11-24T06:50:05.801Z,82.45
2022-11-24T06:51:10.848Z,84.06
2022-11-24T06:52:12.494Z,86.27
2022-11-24T06:53:14.163Z,81.98
2022-11-24T06:54:18.007Z,80.38
2022-11-24T06:55:19.649Z,78.75
2022-11-24T06:56:21.714Z,77.02
2022-11-24T06:57:23.387Z,75.58
2022-11-24T06:58:25.019Z,75.02
2022-11-24T06:59:27.824Z,71.26
2022-11-24T07:00:32.179Z,70.59
2022-11-24T07:01:33.913Z,69.47
2022-11-24T07:02:35.693Z,66.91
2022-11-24T07:03:37.381Z,67.05
2022-11-24T07:04:39.058Z,64.51
2022-11-24T07:05:40.746Z,63.92
2022-11-24T07:06:43.106Z,62.56
2022-11-24T07:07:44.810Z,60.21
2022-11-24T07:08:47.218Z,59.57
2022-11-24T07:09:48.910Z,59.96
2022-11-24T07:10:50.847Z,57.62
2022-11-24T07:11:55.324Z,55.77
2022-11-24T07:12:56.952Z,54.46
2022-11-24T07:14:00.234Z,53.34
2022-11-24T07:15:02.136Z,52.19
2022-11-24T07:16:18.899Z,50.38
2022-11-24T07:17:20.619Z,49.48
2022-11-24T07:18:22.602Z,48.82
2022-11-24T07:19:25.210Z,47.87
2022-11-24T07:20:27.088Z,48.01
2022-11-24T07:21:30.658Z,46.90
2022-11-24T07:22:32.564Z,45.49
2022-11-24T07:23:34.239Z,44.63
2022-11-24T07:24:36.252Z,45.38
2022-11-24T07:25:38.113Z,43.55
2022-11-24T07:26:40.351Z,43.62
2022-11-24T07:27:42.045Z,42.17
2022-11-24T07:28:43.737Z,41.56
2022-11-24T07:29:45.371Z,41.89
2022-11-24T07:30:47.014Z,42.42
2022-11-24T07:31:48.740Z,40.44
2022-11-24T07:32:50.481Z,40.27
2022-11-24T07:33:54.137Z,40.30
2022-11-24T07:34:55.785Z,40.38
2022-11-24T07:35:59.972Z,38.78
2022-11-24T07:37:01.635Z,38.38
2022-11-24T07:38:03.374Z,37.48
2022-11-24T07:39:07.052Z,38.47
2022-11-24T07:40:09.493Z,37.97
2022-11-24T07:41:13.105Z,38.05
2022-11-24T07:42:14.800Z,36.94
2022-11-24T07:43:20.129Z,36.93
2022-11-24T07:44:22.136Z,36.33
2022-11-24T07:45:23.779Z,35.41
2022-11-24T07:46:25.575Z,35.31
2022-11-24T07:47:27.416Z,36.08
2022-11-24T07:48:29.169Z,35.25
2022-11-24T07:49:30.786Z,35.67
2022-11-24T07:50:32.556Z,34.79
2022-11-24T07:51:34.201Z,33.92
2022-11-24T07:52:37.011Z,34.20
2022-11-24T07:53:39.844Z,34.49
2022-11-24T07:54:41.494Z,33.38
2022-11-24T07:55:43.860Z,33.95
2022-11-24T07:56:48.645Z,33.12
2022-11-24T07:57:50.322Z,32.69
2022-11-24T07:58:53.139Z,32.87
2022-11-24T07:59:56.305Z,32.39
2022-11-24T08:00:58.268Z,32.57
2022-11-24T08:01:59.951Z,32.54
2022-11-24T08:03:01.803Z,31.60
2022-11-24T08:04:03.598Z,31.37
2022-11-24T08:05:06.178Z,30.49
2022-11-24T08:06:24.029Z,31.08
2022-11-24T08:07:26.153Z,30.78
2022-11-24T08:08:27.897Z,30.58
2022-11-24T08:09:29.536Z,30.08
2022-11-24T08:10:31.248Z,30.10
2022-11-24T08:11:33.216Z,30.68
2022-11-24T08:12:34.951Z,29.84
2022-11-24T08:13:37.310Z,29.77
2022-11-24T08:14:38.992Z,29.35
2022-11-24T08:15:40.641Z,29.75
2022-11-24T08:16:42.407Z,30.53
2022-11-24T08:17:44.175Z,28.73
2022-11-24T08:18:51.399Z,29.27
2022-11-24T08:19:53.072Z,28.51
2022-11-24T08:20:58.274Z,28.71
2022-11-24T08:21:59.940Z,29.05
2022-11-24T08:23:01.635Z,28.17
2022-11-24T08:24:03.636Z,28.35
2022-11-24T08:25:05.701Z,29.28
2022-11-24T08:26:10.818Z,27.89
2022-11-24T08:27:14.151Z,27.62
2022-11-24T08:28:15.840Z,27.94
2022-11-24T08:29:17.605Z,27.87
2022-11-24T08:30:20.152Z,27.30
2022-11-24T08:31:22.032Z,27.79
2022-11-24T08:32:23.853Z,26.74
2022-11-24T08:33:25.566Z,27.17
2022-11-24T08:34:27.392Z,26.97
2022-11-24T08:35:29.195Z,27.24
2022-11-24T08:36:31.059Z,26.33
2022-11-24T08:37:32.825Z,27.32
2022-11-24T08:38:35.121Z,26.90
2022-11-24T08:39:36.854Z,26.89
2022-11-24T08:40:38.511Z,25.64
2022-11-24T08:41:40.274Z,26.30
2022-11-24T08:42:41.937Z,26.44
2022-11-24T08:43:43.893Z,27.86
2022-11-24T08:44:45.563Z,27.15
2022-11-24T08:45:47.249Z,27.17
2022-11-24T08:46:50.021Z,27.12
2022-11-24T08:47:54.171Z,28.03
2022-11-24T08:48:56.064Z,27.28
2022-11-24T08:49:57.742Z,26.95
2022-11-24T08:51:00.496Z,27.17
2022-11-24T08:52:02.168Z,28.29
2022-11-24T08:53:03.843Z,27.60
2022-11-24T08:54:05.551Z,28.09
2022-11-24T08:55:07.476Z,28.95
2022-11-24T08:56:10.909Z,28.40
2022-11-24T08:57:18.729Z,29.11
2022-11-24T08:58:23.333Z,27.88
2022-11-24T08:59:25.106Z,26.81
2022-11-24T09:00:26.813Z,26.66
2022-11-24T09:01:29.416Z,26.41
2022-11-24T09:02:31.173Z,26.08
2022-11-24T09:03:32.893Z,25.99
2022-11-24T09:04:34.870Z,26.60
2022-11-24T09:05:51.886Z,26.29
2022-11-24T09:06:54.358Z,26.55
2022-11-24T09:07:56.184Z,26.78
2022-11-24T09:08:59.934Z,26.50
2022-11-24T09:10:01.997Z,25.78
2022-11-24T09:11:09.288Z,25.55
2022-11-24T09:12:14.390Z,25.60
2022-11-24T09:13:16.408Z,25.75
2022-11-24T09:14:18.063Z,24.86
2022-11-24T09:15:20.458Z,25.95
2022-11-24T09:16:26.114Z,25.82
2022-11-24T09:17:28.170Z,25.15
2022-11-24T09:18:30.572Z,25.36
2022-11-24T09:19:32.553Z,25.00
2022-11-24T09:20:34.532Z,25.48
2022-11-24T09:21:39.444Z,25.25
2022-11-24T09:22:41.852Z,25.76
2022-11-24T09:23:44.546Z,25.09
2022-11-24T09:24:46.212Z,26.26
2022-11-24T09:25:47.896Z,25.99
2022-11-24T09:26:49.573Z,25.50
2022-11-24T09:27:51.812Z,24.38
2022-11-24T09:28:55.594Z,25.21
2022-11-24T09:30:35.692Z,25.03
2022-11-24T09:31:39.347Z,24.84
2022-11-24T09:32:41.066Z,24.25
2022-11-24T09:33:43.313Z,24.66
2022-11-24T09:34:44.985Z,24.09
2022-11-24T09:35:50.154Z,23.84
2022-11-24T09:36:51.815Z,24.62
2022-11-24T09:37:53.445Z,24.11
2022-11-24T09:38:55.577Z,24.30
2022-11-24T09:39:57.301Z,25.18
2022-11-24T09:41:17.461Z,24.20
2022-11-24T09:42:37.162Z,24.90
2022-11-24T09:43:46.456Z,25.69
2022-11-24T09:45:15.505Z,24.61
2022-11-24T09:46:19.992Z,24.22
2022-11-24T09:47:43.013Z,23.71
2022-11-24T09:48:49.470Z,23.52
2022-11-24T09:50:03.071Z,23.38
2022-11-24T09:51:05.993Z,23.77
2022-11-24T09:52:16.783Z,23.72
2022-11-24T09:53:44.780Z,22.95
2022-11-24T09:54:58.444Z,21.74
2022-11-24T09:56:06.325Z,22.01
2022-11-24T09:57:44.203Z,23.17
2022-11-24T09:59:45.626Z,22.37
2022-11-24T10:00:55.835Z,22.29
2022-11-24T10:02:01.390Z,21.97
2022-11-24T10:03:03.888Z,22.23
2022-11-24T10:04:19.214Z,22.36
2022-11-24T10:05:23.718Z,22.17
2022-11-24T10:06:38.898Z,22.52
2022-11-24T10:07:59.399Z,23.45
2022-11-24T10:09:20.314Z,23.60
2022-11-24T10:10:29.928Z,23.12
2022-11-24T10:11:46.029Z,23.26
2022-11-24T10:12:47.940Z,23.50
2022-11-24T10:14:01.733Z,23.12
2022-11-24T10:15:19.249Z,23.67
2022-11-24T10:16:23.763Z,23.30
2022-11-24T10:17:37.774Z,23.32
2022-11-24T10:18:39.442Z,23.51
2022-11-24T10:19:46.772Z,23.71
2022-11-24T10:20:48.361Z,22.82
2022-11-24T10:22:12.920Z,24.10
2022-11-24T10:23:40.986Z,23.71
2022-11-24T10:24:54.686Z,24.09
2022-11-24T10:26:00.897Z,24.02
2022-11-24T10:27:20.074Z,24.75
2022-11-24T10:28:21.735Z,26.59
2022-11-24T10:29:26.118Z,25.61
2022-11-24T10:30:28.361Z,25.28
2022-11-24T10:31:36.772Z,25.97
2022-11-24T10:32:45.151Z,26.18
2022-11-24T10:33:47.906Z,26.49
2022-11-24T10:34:50.718Z,26.17
2022-11-24T10:36:09.660Z,25.34
2022-11-24T10:37:11.267Z,26.28
2022-11-24T10:38:21.988Z,26.57
2022-11-24T10:39:32.802Z,26.84
2022-11-24T10:40:59.143Z,27.35
2022-11-24T10:42:03.296Z,27.70
2022-11-24T10:43:10.415Z,28.79
2022-11-24T10:44:15.721Z,28.43
2022-11-24T10:45:22.661Z,28.75
2022-11-24T10:46:27.289Z,28.41
2022-11-24T10:47:30.476Z,28.68
2022-11-24T10:48:41.233Z,28.81
2022-11-24T10:49:58.233Z,28.85
2022-11-24T10:51:38.823Z,29.39
2022-11-24T10:52:44.594Z,29.26
2022-11-24T10:53:48.337Z,29.81
2022-11-24T10:54:59.328Z,30.28
2022-11-24T10:56:03.876Z,30.50
2022-11-24T10:57:05.565Z,30.54
2022-11-24T10:58:16.345Z,30.79
2022-11-24T10:59:38.398Z,31.27
2022-11-24T11:00:40.385Z,30.80
2022-11-24T11:01:42.376Z,31.17
2022-11-24T11:02:45.209Z,31.36
2022-11-24T11:03:59.327Z,31.29
2022-11-24T11:05:32.729Z,31.67
2022-11-24T11:06:36.396Z,32.39
2022-11-24T11:07:38.135Z,33.01
2022-11-24T11:08:40.433Z,32.95
2022-11-24T11:09:42.109Z,33.41
2022-11-24T11:10:44.940Z,33.33
2022-11-24T11:11:48.899Z,32.99
2022-11-24T11:12:50.750Z,33.01
2022-11-24T11:14:02.978Z,33.51
2022-11-24T11:15:23.161Z,33.51
2022-11-24T11:16:32.578Z,33.00
2022-11-24T11:17:37.213Z,33.02
2022-11-24T11:18:38.924Z,33.43
2022-11-24T11:19:49.568Z,34.13
2022-11-24T11:20:58.157Z,33.27
2022-11-24T11:22:24.663Z,34.17
2022-11-24T11:23:35.915Z,34.00
2022-11-24T11:24:43.538Z,34.74
2022-11-24T11:25:45.192Z,35.11
2022-11-24T11:26:46.897Z,34.50
2022-11-24T11:27:49.256Z,34.57
2022-11-24T11:31:15.279Z,35.42
2022-11-24T11:34:56.319Z,36.05
2022-11-24T11:36:01.107Z,35.90
2022-11-24T11:37:04.514Z,36.29
2022-11-24T11:38:07.025Z,36.99
2022-11-24T11:39:35.839Z,36.57
2022-11-24T11:40:37.568Z,36.52
2022-11-24T11:41:46.324Z,36.66
2022-11-24T11:43:08.069Z,37.20
2022-11-24T11:44:34.245Z,37.83
2022-11-24T11:45:38.118Z,37.68
2022-11-24T11:46:39.927Z,38.72
2022-11-24T11:47:44.191Z,38.71
2022-11-24T11:48:47.542Z,38.84
2022-11-24T11:49:49.881Z,38.59
2022-11-24T11:52:37.772Z,39.62
2022-11-24T11:53:53.280Z,39.80
2022-11-24T11:55:27.072Z,40.59
2022-11-24T11:56:31.140Z,41.01
2022-11-24T11:57:35.713Z,41.04
2022-11-24T11:58:56.032Z,42.20
2022-11-24T12:00:15.687Z,42.10
2022-11-24T12:01:26.732Z,42.73
2022-11-24T12:02:55.451Z,42.98
2022-11-24T12:04:15.747Z,43.31
2022-11-24T12:05:17.374Z,43.09
2022-11-24T12:06:56.248Z,43.34
2022-11-24T12:08:20.698Z,43.55
2022-11-24T12:09:51.114Z,43.50
2022-11-24T12:10:58.568Z,43.24
2022-11-24T12:12:03.165Z,43.24
2022-11-24T12:13:10.971Z,43.71
2022-11-24T12:14:24.629Z,43.11
2022-11-24T12:15:41.576Z,43.31
2022-11-24T12:17:13.599Z,42.81
2022-11-24T12:18:57.444Z,43.00
2022-11-24T12:20:33.329Z,43.11
2022-11-24T12:22:06.267Z,43.91
2022-11-24T12:23:14.085Z,43.67
2022-11-24T12:24:15.720Z,43.69
2022-11-24T12:25:17.343Z,44.15
2022-11-24T12:26:31.089Z,44.18
2022-11-24T12:27:50.209Z,44.23
2022-11-24T12:28:51.848Z,44.50
2022-11-24T12:30:10.327Z,44.65
2022-11-24T12:31:36.423Z,44.32
2022-11-24T12:33:33.017Z,45.06
2022-11-24T12:34:59.814Z,45.86
2022-11-24T12:36:16.163Z,45.95
2022-11-24T12:37:32.906Z,45.42
2022-11-24T12:38:37.324Z,45.38
2022-11-24T12:40:03.849Z,44.84
2022-11-24T12:41:43.280Z,44.85
2022-11-24T12:43:18.557Z,46.05
2022-11-24T12:44:45.002Z,46.45
2022-11-24T12:46:04.799Z,46.74
2022-11-24T12:47:19.663Z,46.27
2022-11-24T12:48:21.367Z,46.64
2022-11-24T12:49:23.026Z,46.61
2022-11-24T12:50:28.776Z,46.17
2022-11-24T12:51:40.205Z,46.27
2022-11-24T12:52:48.438Z,46.24
2022-11-24T12:53:53.027Z,46.32
2022-11-24T12:54:55.657Z,46.55
2022-11-24T12:56:11.042Z,46.30
2022-11-24T12:57:26.192Z,46.54
2022-11-24T12:58:55.912Z,46.09
2022-11-24T13:00:29.236Z,46.48
2022-11-24T13:01:53.426Z,47.12
2022-11-24T13:03:27.645Z,47.31
2022-11-24T13:04:42.731Z,47.35
2022-11-24T13:05:56.413Z,47.58
2022-11-24T13:07:03.307Z,47.72
2022-11-24T13:08:06.017Z,47.99
2022-11-24T13:09:09.447Z,48.34
2022-11-24T13:10:53.531Z,48.44
2022-11-24T13:11:50.113Z,48.50
2022-11-24T13:13:09.500Z,48.78
2022-11-24T13:14:18.887Z,49.19
2022-11-24T13:15:44.795Z,49.22
2022-11-24T13:18:49.368Z,49.93
2022-11-24T13:19:51.588Z,49.79
2022-11-24T13:20:53.515Z,49.65
2022-11-24T13:22:04.710Z,48.87
2022-11-24T13:23:09.540Z,49.35
2022-11-24T13:24:16.577Z,49.14
2022-11-24T13:25:28.778Z,48.93
2022-11-24T13:26:42.346Z,49.24
2022-11-24T13:27:46.673Z,49.68
2022-11-24T13:29:13.412Z,49.23
2022-11-24T13:30:35.255Z,49.68
2022-11-24T13:31:37.061Z,49.78
2022-11-24T13:32:38.747Z,49.46
2022-11-24T13:33:40.691Z,49.67
2022-11-24T13:34:49.915Z,50.20
2022-11-24T13:36:04.373Z,49.79
2022-11-24T13:37:26.537Z,50.24
2022-11-24T13:38:44.610Z,49.91
2022-11-24T13:39:55.180Z,49.28
2022-11-24T13:41:20.954Z,49.51
2022-11-24T13:42:43.942Z,49.50
2022-11-24T13:44:16.329Z,48.77
2022-11-24T13:45:39.924Z,49.08
2022-11-24T13:47:05.632Z,49.26
2022-11-24T13:48:20.778Z,49.48
2022-11-24T13:49:23.003Z,49.68
2022-11-24T13:50:50.928Z,49.65
2022-11-24T13:51:57.179Z,50.11
2022-11-24T13:53:09.339Z,50.32
2022-11-24T13:54:11.369Z,50.36
2022-11-24T13:55:13.010Z,50.40
2022-11-24T13:56:17.383Z,50.60
2022-11-24T13:57:42.631Z,50.45
2022-11-24T13:58:48.096Z,50.25
2022-11-24T13:59:49.796Z,50.08
2022-11-24T14:01:26.127Z,49.33
2022-11-24T14:02:29.322Z,48.93
2022-11-24T14:03:47.573Z,49.15
2022-11-24T14:05:02.910Z,49.38
2022-11-24T14:06:05.522Z,49.39
2022-11-24T14:07:12.645Z,49.58
2022-11-24T14:08:21.960Z,49.40
2022-11-24T14:09:51.221Z,49.10
2022-11-24T14:10:55.941Z,49.11
2022-11-24T14:12:20.330Z,48.76
2022-11-24T14:13:34.579Z,49.03
2022-11-24T14:14:36.442Z,49.31
2022-11-24T14:15:38.494Z,49.03
2022-11-24T14:16:40.176Z,49.07
2022-11-24T14:17:41.903Z,49.36
2022-11-24T14:18:46.851Z,48.62
2022-11-24T14:19:51.084Z,48.75
2022-11-24T14:20:52.752Z,48.96